createdAt,value
2019-04-30T00:00:47.413Z,99832.24
2019-04-30T00:02:59.500Z,99828.41
2019-04-30T00:05:05.544Z,99826.81
2019-04-30T00:07:15.556Z,99822.97
2019-04-30T00:09:19.284Z,99826.94
2019-04-30T00:11:25.121Z,99822.19
2019-04-30T00:13:30.225Z,99821.41
2019-04-30T00:15:35.709Z,99824.92
2019-04-30T00:17:40.857Z,99820.63
2019-04-30T00:19:46.049Z,99818.97
2019-04-30T00:21:57.077Z,99817.73
2019-04-30T00:24:00.802Z,99819.94
2019-04-30T00:26:10.319Z,99813.89
2019-04-30T00:28:12.522Z,99815.70
2019-04-30T00:30:17.634Z,99810.57
2019-04-30T00:32:22.740Z,99809.37
2019-04-30T00:34:30.832Z,99812.42
2019-04-30T00:36:37.399Z,99809.88
2019-04-30T00:38:41.328Z,99813.39
2019-04-30T00:40:46.371Z,99808.71
2019-04-30T00:42:51.453Z,99800.97
2019-04-30T00:44:59.692Z,99804.02
2019-04-30T00:47:05.015Z,99802.27
2019-04-30T00:49:16.086Z,99796.67
2019-04-30T00:51:21.106Z,99796.31
2019-04-30T00:53:26.108Z,99795.53
2019-04-30T00:55:30.888Z,99791.24
2019-04-30T00:57:37.332Z,99790.06
2019-04-30T00:59:44.656Z,99792.22
2019-04-30T01:02:31.747Z,99787.92
2019-04-30T01:04:38.256Z,99788.83
2019-04-30T01:06:43.307Z,99784.31
2019-04-30T01:08:48.346Z,99779.17
2019-04-30T01:10:53.403Z,99777.02
2019-04-30T01:12:59.874Z,99772.28
2019-04-30T01:15:06.517Z,99774.42
2019-04-30T01:17:12.510Z,99773.58
2019-04-30T01:19:29.552Z,99771.07
2019-04-30T01:21:24.287Z,99764.63
2019-04-30T01:23:29.655Z,99769.83
2019-04-30T01:25:34.765Z,99765.16
2019-04-30T01:27:45.617Z,99767.75
2019-04-30T01:29:46.534Z,99760.41
2019-04-30T01:31:51.568Z,99769.95
2019-04-30T01:33:56.589Z,99769.12
2019-04-30T01:36:04.174Z,99770.02
2019-04-30T01:38:12.367Z,99776.07
2019-04-30T01:40:18.812Z,99780.48
2019-04-30T01:42:23.343Z,99773.17
2019-04-30T01:44:29.485Z,99767.64
2019-04-30T01:46:34.719Z,99773.69
2019-04-30T01:48:43.734Z,99768.94
2019-04-30T01:50:46.479Z,99762.05
2019-04-30T01:52:54.537Z,99766.86
2019-04-30T01:55:01.066Z,99768.22
2019-04-30T01:57:24.120Z,99763.48
2019-04-30T01:59:48.966Z,99765.63
2019-04-30T02:01:54.257Z,99756.23
2019-04-30T02:03:59.270Z,99761.09
2019-04-30T02:06:04.338Z,99758.11
2019-04-30T02:08:09.352Z,99758.11
2019-04-30T02:10:14.383Z,99761.16
2019-04-30T02:12:21.894Z,99762.91
2019-04-30T02:14:26.171Z,99758.63
2019-04-30T02:16:31.212Z,99760.44
2019-04-30T02:18:36.252Z,99757.48
2019-04-30T02:20:41.284Z,99755.78
2019-04-30T02:22:46.326Z,99757.09
2019-04-30T02:24:51.367Z,99752.34
2019-04-30T02:26:56.383Z,99751.49
2019-04-30T02:29:01.411Z,99750.26
2019-04-30T02:31:09.082Z,99755.45
2019-04-30T02:33:13.720Z,99752.47
2019-04-30T02:35:28.927Z,99757.66
2019-04-30T02:37:35.402Z,99755.13
2019-04-30T02:39:40.852Z,99756.42
2019-04-30T02:41:45.985Z,99756.97
2019-04-30T02:43:51.070Z,99754.86
2019-04-30T02:45:56.537Z,99753.10
2019-04-30T02:48:01.622Z,99747.06
2019-04-30T02:50:15.258Z,99749.27
2019-04-30T02:52:13.759Z,99743.67
2019-04-30T02:54:23.967Z,99739.38
2019-04-30T02:56:30.055Z,99744.58
2019-04-30T02:58:34.749Z,99745.88
2019-04-30T03:00:40.229Z,99745.09
2019-04-30T03:02:45.268Z,99739.05
2019-04-30T03:04:50.312Z,99740.84
2019-04-30T03:06:55.319Z,99738.30
2019-04-30T03:09:01.079Z,99742.20
2019-04-30T03:11:09.742Z,99736.16
2019-04-30T03:13:14.953Z,99735.31
2019-04-30T03:15:22.848Z,99732.77
2019-04-30T03:17:51.544Z,99731.08
2019-04-30T03:20:10.634Z,99734.13
2019-04-30T03:22:21.359Z,99733.34
2019-04-30T03:24:26.397Z,99736.49
2019-04-30T03:26:31.412Z,99732.27
2019-04-30T03:28:36.452Z,99725.31
2019-04-30T03:30:42.474Z,99727.45
2019-04-30T03:32:55.976Z,99725.38
2019-04-30T03:34:54.633Z,99725.38
2019-04-30T03:37:01.931Z,99730.18
2019-04-30T03:39:10.360Z,99740.58
2019-04-30T03:41:13.645Z,99744.47
2019-04-30T03:43:20.125Z,99744.53
2019-04-30T03:45:25.313Z,99737.19
2019-04-30T03:47:30.363Z,99735.89
2019-04-30T03:49:35.336Z,99738.48
2019-04-30T03:51:40.618Z,99732.54
2019-04-30T03:53:45.693Z,99739.42
2019-04-30T03:55:50.865Z,99730.84
2019-04-30T03:57:55.934Z,99737.80
2019-04-30T04:00:01.159Z,99728.70
2019-04-30T04:02:30.992Z,99731.30
2019-04-30T04:04:41.366Z,99727.86
2019-04-30T04:06:50.108Z,99733.56
2019-04-30T04:09:00.355Z,99726.73
2019-04-30T04:11:16.892Z,99732.78
2019-04-30T04:13:21.912Z,99728.97
2019-04-30T04:15:26.960Z,99730.27
2019-04-30T04:17:31.997Z,99729.42
2019-04-30T04:19:39.308Z,99728.58
2019-04-30T04:21:43.772Z,99728.25
2019-04-30T04:23:49.291Z,99729.48
2019-04-30T04:25:54.495Z,99721.75
2019-04-30T04:28:00.343Z,99722.20
2019-04-30T04:30:06.411Z,99722.66
2019-04-30T04:32:11.529Z,99723.11
2019-04-30T04:34:19.433Z,99715.38
2019-04-30T04:36:23.599Z,99722.27
2019-04-30T04:38:30.376Z,99728.01
2019-04-30T04:40:35.529Z,99724.56
2019-04-30T04:42:40.960Z,99725.86
2019-04-30T04:44:46.098Z,99727.61
2019-04-30T04:46:51.104Z,99728.06
2019-04-30T04:48:56.186Z,99723.78
2019-04-30T04:51:01.296Z,99722.93
2019-04-30T04:53:08.874Z,99729.88
2019-04-30T04:55:13.083Z,99729.03
2019-04-30T04:57:21.955Z,99727.34
2019-04-30T04:59:24.911Z,99724.80
2019-04-30T05:01:29.989Z,99726.55
2019-04-30T05:03:39.904Z,99733.50
2019-04-30T05:05:45.131Z,99729.15
2019-04-30T05:07:50.197Z,99731.89
2019-04-30T05:09:55.232Z,99728.00
2019-04-30T05:12:00.249Z,99733.20
2019-04-30T05:14:05.383Z,99732.34
2019-04-30T05:16:10.387Z,99735.45
2019-04-30T05:18:15.434Z,99735.45
2019-04-30T05:20:20.451Z,99737.20
2019-04-30T05:22:25.489Z,99738.50
2019-04-30T05:24:30.524Z,99745.45
2019-04-30T05:26:38.591Z,99744.60
2019-04-30T05:28:43.268Z,99748.95
2019-04-30T05:30:49.397Z,99748.55
2019-04-30T05:32:54.634Z,99749.01
2019-04-30T05:34:59.704Z,99753.36
2019-04-30T05:37:04.751Z,99752.15
2019-04-30T05:39:09.808Z,99757.34
2019-04-30T05:41:14.859Z,99757.73
2019-04-30T05:43:19.913Z,99753.45
2019-04-30T05:45:24.943Z,99754.80
2019-04-30T05:47:29.976Z,99756.55
2019-04-30T05:49:35.105Z,99765.19
2019-04-30T05:51:52.618Z,99763.95
2019-04-30T05:53:49.097Z,99769.98
2019-04-30T05:55:53.943Z,99771.73
2019-04-30T05:58:01.414Z,99773.88
2019-04-30T06:00:07.044Z,99765.70
2019-04-30T06:02:13.046Z,99767.45
2019-04-30T06:04:19.412Z,99772.64
2019-04-30T06:06:24.442Z,99771.40
2019-04-30T06:08:36.659Z,99773.99
2019-04-30T06:10:47.172Z,99772.70
2019-04-30T06:13:12.103Z,99779.64
2019-04-30T06:15:34.876Z,99783.53
2019-04-30T06:17:39.895Z,99781.88
2019-04-30T06:19:44.937Z,99776.34
2019-04-30T06:21:49.980Z,99780.69
2019-04-30T06:23:55.023Z,99775.95
2019-04-30T06:26:08.951Z,99778.09
2019-04-30T06:28:06.811Z,99774.59
2019-04-30T06:30:12.167Z,99774.14
2019-04-30T06:32:18.627Z,99777.19
2019-04-30T06:34:23.775Z,99773.69
2019-04-30T06:36:28.813Z,99766.80
2019-04-30T06:38:33.852Z,99768.10
2019-04-30T06:40:39.161Z,99772.00
2019-04-30T06:42:44.819Z,99767.65
2019-04-30T06:44:49.854Z,99773.69
2019-04-30T06:46:54.895Z,99772.00
2019-04-30T06:49:00.075Z,99769.00
2019-04-30T06:51:05.475Z,99774.98
2019-04-30T06:53:10.629Z,99768.55
2019-04-30T06:55:30.838Z,99770.70
2019-04-30T06:57:46.133Z,99772.39
2019-04-30T06:59:53.144Z,99768.55
2019-04-30T07:01:59.007Z,99772.50
2019-04-30T07:04:10.385Z,99768.61
2019-04-30T07:06:26.920Z,99767.70
2019-04-30T07:08:54.657Z,99765.11
2019-04-30T07:11:11.143Z,99762.45
2019-04-30T07:13:21.965Z,99771.15
2019-04-30T07:15:27.021Z,99767.70
2019-04-30T07:17:32.090Z,99763.36
2019-04-30T07:19:51.080Z,99765.05
2019-04-30T07:21:45.288Z,99768.89
2019-04-30T07:23:50.837Z,99767.11
2019-04-30T07:25:55.856Z,99768.80
2019-04-30T07:28:00.922Z,99766.15
2019-04-30T07:30:06.009Z,99767.00
2019-04-30T07:32:11.124Z,99764.40
2019-04-30T07:34:19.494Z,99763.89
2019-04-30T07:36:42.430Z,99764.73
2019-04-30T07:38:35.666Z,99762.92
2019-04-30T07:40:40.990Z,99766.34
2019-04-30T07:42:46.013Z,99768.48
2019-04-30T07:44:51.392Z,99770.17
2019-04-30T07:46:59.346Z,99762.39
2019-04-30T07:49:04.811Z,99764.92
2019-04-30T07:51:10.948Z,99770.45
2019-04-30T07:53:18.696Z,99764.87
2019-04-30T07:55:23.213Z,99759.16
2019-04-30T07:57:29.176Z,99768.25
2019-04-30T07:59:34.978Z,99766.50
2019-04-30T08:02:00.773Z,99762.52
2019-04-30T08:04:05.715Z,99765.05
2019-04-30T08:06:10.970Z,99759.86
2019-04-30T08:08:24.300Z,99762.45
2019-04-30T08:10:23.795Z,99758.05
2019-04-30T08:12:33.628Z,99758.84
2019-04-30T08:14:35.572Z,99754.48
2019-04-30T08:16:40.618Z,99761.38
2019-04-30T08:18:45.684Z,99758.33
2019-04-30T08:20:50.725Z,99758.69
2019-04-30T08:22:56.084Z,99760.38
2019-04-30T08:25:01.145Z,99757.33
2019-04-30T08:27:06.253Z,99762.02
2019-04-30T08:29:11.388Z,99754.62
2019-04-30T08:31:16.432Z,99761.50
2019-04-30T08:33:21.529Z,99763.20
2019-04-30T08:35:26.734Z,99758.84
2019-04-30T08:37:31.763Z,99755.31
2019-04-30T08:39:36.889Z,99758.75
2019-04-30T08:41:42.493Z,99752.66
2019-04-30T08:43:59.814Z,99757.39
2019-04-30T08:46:19.056Z,99756.49
2019-04-30T08:48:41.940Z,99754.73
2019-04-30T08:50:35.821Z,99759.55
2019-04-30T08:52:40.873Z,99760.00
2019-04-30T08:54:45.989Z,99760.78
2019-04-30T08:56:51.046Z,99759.42
2019-04-30T08:58:56.071Z,99758.06
2019-04-30T09:01:01.183Z,99754.17
2019-04-30T09:03:06.355Z,99756.22
2019-04-30T09:05:18.681Z,99761.36
2019-04-30T09:07:23.751Z,99757.85
2019-04-30T09:09:29.846Z,99760.33
2019-04-30T09:11:49.008Z,99760.33
2019-04-30T09:13:42.305Z,99758.97
2019-04-30T09:15:49.256Z,99762.38
2019-04-30T09:18:03.244Z,99752.84
2019-04-30T09:20:01.154Z,99760.58
2019-04-30T09:22:14.365Z,99760.52
2019-04-30T09:24:13.234Z,99756.55
2019-04-30T09:26:20.001Z,99761.23
2019-04-30T09:28:25.042Z,99762.45
2019-04-30T09:30:30.250Z,99763.74
2019-04-30T09:32:35.327Z,99775.38
2019-04-30T09:34:40.521Z,99766.22
2019-04-30T09:36:45.602Z,99768.76
2019-04-30T09:38:50.660Z,99767.40
2019-04-30T09:40:56.134Z,99770.88
2019-04-30T09:43:01.301Z,99764.28
2019-04-30T09:45:06.540Z,99767.67
2019-04-30T09:47:14.615Z,99764.16
2019-04-30T09:49:20.883Z,99757.66
2019-04-30T09:51:26.347Z,99759.36
2019-04-30T09:53:31.921Z,99764.03
2019-04-30T09:55:40.260Z,99759.23
2019-04-30T09:57:45.018Z,99766.94
2019-04-30T09:59:50.037Z,99762.58
2019-04-30T10:01:55.154Z,99765.97
2019-04-30T10:04:00.825Z,99758.56
2019-04-30T10:06:06.280Z,99764.54
2019-04-30T10:08:11.342Z,99761.88
2019-04-30T10:10:18.829Z,99760.03
2019-04-30T10:12:24.533Z,99759.58
2019-04-30T10:14:31.531Z,99759.97
2019-04-30T10:17:04.741Z,99758.61
2019-04-30T10:19:11.351Z,99760.30
2019-04-30T10:21:16.413Z,99759.00
2019-04-30T10:23:21.477Z,99758.48
2019-04-30T10:25:28.078Z,99756.27
2019-04-30T10:27:35.168Z,99757.09
2019-04-30T10:29:41.248Z,99758.72
2019-04-30T10:31:48.951Z,99755.59
2019-04-30T10:33:58.666Z,99746.50
2019-04-30T10:36:05.401Z,99750.78
2019-04-30T10:38:10.583Z,99753.32
2019-04-30T10:40:15.605Z,99750.27
2019-04-30T10:42:20.726Z,99747.57
2019-04-30T10:44:25.771Z,99744.00
2019-04-30T10:46:31.001Z,99742.24
2019-04-30T10:48:36.313Z,99747.31
2019-04-30T10:50:41.597Z,99742.50
2019-04-30T10:52:46.645Z,99738.96
2019-04-30T10:54:51.774Z,99740.20
2019-04-30T10:56:59.173Z,99740.52
2019-04-30T10:59:04.488Z,99740.45
2019-04-30T11:01:11.417Z,99736.10
2019-04-30T11:03:22.822Z,99739.91
2019-04-30T11:05:26.185Z,99735.94
2019-04-30T11:07:31.228Z,99735.88
2019-04-30T11:09:39.037Z,99739.32
2019-04-30T11:11:44.102Z,99738.34
2019-04-30T11:13:50.729Z,99734.37
2019-04-30T11:15:55.772Z,99736.52
2019-04-30T11:18:01.120Z,99737.27
2019-04-30T11:20:06.992Z,99732.45
2019-04-30T11:22:12.807Z,99731.94
2019-04-30T11:24:20.919Z,99728.81
2019-04-30T11:26:31.875Z,99734.41
2019-04-30T11:28:39.880Z,99729.10
2019-04-30T11:30:49.224Z,99725.13
2019-04-30T11:32:58.231Z,99728.91
2019-04-30T11:35:07.244Z,99728.91
2019-04-30T11:37:33.240Z,99724.09
2019-04-30T11:39:38.517Z,99723.17
2019-04-30T11:41:43.591Z,99719.63
2019-04-30T11:43:49.622Z,99726.06
2019-04-30T11:46:34.963Z,99726.00
2019-04-30T11:48:40.104Z,99725.09
2019-04-30T11:50:45.173Z,99727.69
2019-04-30T11:52:50.459Z,99728.08
2019-04-30T11:54:55.682Z,99726.25
2019-04-30T11:57:01.229Z,99725.80
2019-04-30T11:59:08.578Z,99733.89
2019-04-30T12:01:15.054Z,99727.78
2019-04-30T12:03:20.109Z,99729.92
2019-04-30T12:05:25.474Z,99732.45
2019-04-30T12:08:09.553Z,99729.86
2019-04-30T12:10:20.873Z,99725.11
2019-04-30T12:12:26.256Z,99723.34
2019-04-30T12:14:32.834Z,99722.95
2019-04-30T12:16:39.584Z,99722.50
2019-04-30T12:18:44.693Z,99719.86
2019-04-30T12:20:50.844Z,99715.34
2019-04-30T12:22:55.905Z,99711.43
2019-04-30T12:25:03.316Z,99701.80
2019-04-30T12:27:09.678Z,99695.28
2019-04-30T12:29:14.749Z,99701.20
2019-04-30T12:31:19.838Z,99696.84
2019-04-30T12:33:24.827Z,99698.50
2019-04-30T12:35:29.905Z,99693.15
2019-04-30T12:37:34.987Z,99687.03
2019-04-30T12:39:40.110Z,99682.20
2019-04-30T12:41:48.892Z,99680.84
2019-04-30T12:43:54.072Z,99684.67
2019-04-30T12:46:03.435Z,99682.81
2019-04-30T12:48:14.666Z,99685.34
2019-04-30T12:50:29.206Z,99683.97
2019-04-30T12:52:39.521Z,99684.36
2019-04-30T12:54:57.302Z,99680.84
2019-04-30T12:57:29.348Z,99679.92
2019-04-30T12:59:34.201Z,99682.42
2019-04-30T13:01:39.904Z,99676.77
2019-04-30T13:03:55.895Z,99677.22
2019-04-30T13:05:52.869Z,99681.52
2019-04-30T13:08:00.196Z,99676.69
2019-04-30T13:10:07.095Z,99679.22
2019-04-30T13:12:13.981Z,99680.91
2019-04-30T13:14:20.503Z,99681.83
2019-04-30T13:16:26.562Z,99679.16
2019-04-30T13:18:31.705Z,99676.16
2019-04-30T13:20:39.048Z,99677.84
2019-04-30T13:22:44.404Z,99684.75
2019-04-30T13:24:49.912Z,99679.08
2019-04-30T13:26:55.061Z,99674.72
2019-04-30T13:29:05.882Z,99678.13
2019-04-30T13:31:11.940Z,99679.08
2019-04-30T13:33:36.005Z,99677.67
2019-04-30T13:35:41.063Z,99673.31
2019-04-30T13:37:52.636Z,99677.60
2019-04-30T13:40:04.385Z,99673.23
2019-04-30T13:42:20.118Z,99668.95
2019-04-30T13:44:49.424Z,99671.94
2019-04-30T13:46:56.386Z,99670.63
2019-04-30T13:49:01.450Z,99663.28
2019-04-30T13:51:06.534Z,99663.67
2019-04-30T13:53:11.704Z,99654.09
2019-04-30T13:55:16.738Z,99654.94
2019-04-30T13:57:21.758Z,99654.87
2019-04-30T13:59:28.265Z,99655.70
2019-04-30T14:01:33.457Z,99654.69
2019-04-30T14:03:44.349Z,99655.07
2019-04-30T14:05:51.612Z,99654.16
2019-04-30T14:08:19.969Z,99649.79
2019-04-30T14:10:25.219Z,99649.72
2019-04-30T14:12:31.921Z,99650.17
2019-04-30T14:14:36.979Z,99643.20
2019-04-30T14:16:43.896Z,99648.34
2019-04-30T14:18:48.858Z,99645.28
2019-04-30T14:20:53.897Z,99638.77
2019-04-30T14:22:58.921Z,99640.91
2019-04-30T14:25:04.107Z,99637.39
2019-04-30T14:27:09.213Z,99638.20
2019-04-30T14:29:14.262Z,99636.44
2019-04-30T14:31:20.849Z,99643.80
2019-04-30T14:33:26.880Z,99638.13
2019-04-30T14:35:32.376Z,99642.87
2019-04-30T14:37:38.952Z,99643.73
2019-04-30T14:39:44.260Z,99638.05
2019-04-30T14:41:51.960Z,99633.23
2019-04-30T14:44:02.737Z,99632.77
2019-04-30T14:46:30.749Z,99628.33
2019-04-30T14:48:42.159Z,99627.56
2019-04-30T14:50:48.958Z,99624.88
2019-04-30T14:53:18.228Z,99625.73
2019-04-30T14:55:40.416Z,99627.11
2019-04-30T14:58:09.566Z,99623.12
2019-04-30T15:00:52.048Z,99620.06
2019-04-30T15:03:04.520Z,99618.75
2019-04-30T15:05:10.656Z,99619.22
2019-04-30T15:07:15.685Z,99616.99
2019-04-30T15:09:21.081Z,99615.20
2019-04-30T15:11:26.161Z,99617.66
2019-04-30T15:13:31.251Z,99620.19
2019-04-30T15:15:36.277Z,99613.59
2019-04-30T15:17:41.358Z,99616.12
2019-04-30T15:19:49.762Z,99618.17
2019-04-30T15:21:54.231Z,99610.73
2019-04-30T15:24:06.785Z,99611.58
2019-04-30T15:26:21.382Z,99608.52
2019-04-30T15:28:18.709Z,99608.44
2019-04-30T15:30:23.834Z,99609.28
2019-04-30T15:32:29.233Z,99608.36
2019-04-30T15:34:34.301Z,99601.47
2019-04-30T15:36:39.386Z,99605.76
2019-04-30T15:39:04.215Z,99600.09
2019-04-30T15:41:10.901Z,99596.17
2019-04-30T15:43:16.081Z,99598.78
2019-04-30T15:45:22.861Z,99594.03
2019-04-30T15:47:28.883Z,99594.03
2019-04-30T15:49:34.137Z,99594.41
2019-04-30T15:51:39.176Z,99591.34
2019-04-30T15:53:44.211Z,99591.23
2019-04-30T15:55:50.982Z,99594.69
2019-04-30T15:58:00.827Z,99592.47
2019-04-30T16:00:06.323Z,99588.94
2019-04-30T16:02:29.209Z,99586.33
2019-04-30T16:04:59.869Z,99582.42
2019-04-30T16:07:05.224Z,99585.03
2019-04-30T16:09:12.863Z,99584.19
2019-04-30T16:11:30.202Z,99583.34
2019-04-30T16:13:54.592Z,99582.89
2019-04-30T16:16:02.922Z,99580.66
2019-04-30T16:18:09.755Z,99584.11
2019-04-30T16:20:15.170Z,99579.36
2019-04-30T16:22:20.963Z,99577.98
2019-04-30T16:24:26.008Z,99578.36
2019-04-30T16:26:31.073Z,99579.20
2019-04-30T16:28:36.135Z,99572.23
2019-04-30T16:30:42.875Z,99571.70
2019-04-30T16:32:50.549Z,99575.60
2019-04-30T16:34:54.837Z,99579.52
2019-04-30T16:36:59.957Z,99578.67
2019-04-30T16:39:08.760Z,99581.20
2019-04-30T16:41:15.158Z,99577.75
2019-04-30T16:43:21.370Z,99568.55
2019-04-30T16:45:26.565Z,99579.44
2019-04-30T16:47:32.791Z,99569.01
2019-04-30T16:49:38.775Z,99575.45
2019-04-30T16:51:44.009Z,99574.98
2019-04-30T16:53:49.075Z,99569.77
2019-04-30T16:55:54.141Z,99566.25
2019-04-30T16:57:59.295Z,99564.10
2019-04-30T17:00:06.019Z,99560.95
2019-04-30T17:02:12.019Z,99557.51
2019-04-30T17:04:22.578Z,99563.56
2019-04-30T17:06:29.280Z,99556.59
2019-04-30T17:08:39.584Z,99554.79
2019-04-30T17:11:04.162Z,99547.47
2019-04-30T17:13:31.312Z,99551.72
2019-04-30T17:15:37.191Z,99548.66
2019-04-30T17:17:42.240Z,99544.86
2019-04-30T17:19:49.128Z,99544.36
2019-04-30T17:21:54.324Z,99545.67
2019-04-30T17:23:59.341Z,99545.13
2019-04-30T17:26:04.506Z,99536.00
2019-04-30T17:28:09.523Z,99540.76
2019-04-30T17:30:16.375Z,99539.00
2019-04-30T17:32:21.393Z,99537.61
2019-04-30T17:34:26.428Z,99534.16
2019-04-30T17:36:31.558Z,99536.31
2019-04-30T17:38:36.615Z,99538.00
2019-04-30T17:40:41.652Z,99528.48
2019-04-30T17:42:46.741Z,99523.73
2019-04-30T17:44:56.797Z,99530.17
2019-04-30T17:47:00.125Z,99526.64
2019-04-30T17:49:05.427Z,99528.41
2019-04-30T17:51:10.574Z,99524.04
2019-04-30T17:53:15.625Z,99524.04
2019-04-30T17:55:21.040Z,99519.67
2019-04-30T17:57:32.302Z,99523.95
2019-04-30T17:59:32.970Z,99518.36
2019-04-30T18:01:40.124Z,99523.47
2019-04-30T18:03:45.185Z,99523.95
2019-04-30T18:05:50.288Z,99520.86
2019-04-30T18:07:55.392Z,99521.70
2019-04-30T18:10:00.494Z,99516.14
2019-04-30T18:12:05.648Z,99518.74
2019-04-30T18:14:10.761Z,99516.14
2019-04-30T18:16:15.792Z,99513.03
2019-04-30T18:18:32.826Z,99517.44
2019-04-30T18:20:43.211Z,99518.25
2019-04-30T18:22:58.693Z,99520.05
2019-04-30T18:25:28.629Z,99518.74
2019-04-30T18:27:45.632Z,99516.95
2019-04-30T18:29:44.652Z,99513.15
2019-04-30T18:31:49.746Z,99511.00
2019-04-30T18:33:54.792Z,99514.91
2019-04-30T18:35:59.846Z,99516.22
2019-04-30T18:38:05.321Z,99516.14
2019-04-30T18:40:10.457Z,99513.15
2019-04-30T18:42:15.482Z,99517.44
2019-04-30T18:44:20.637Z,99516.95
2019-04-30T18:46:25.729Z,99513.15
2019-04-30T18:48:32.472Z,99510.92
2019-04-30T18:50:37.836Z,99511.39
2019-04-30T18:52:43.311Z,99508.86
2019-04-30T18:54:49.508Z,99518.36
2019-04-30T18:56:54.819Z,99516.95
2019-04-30T18:59:00.036Z,99508.78
2019-04-30T19:01:07.021Z,99514.83
2019-04-30T19:03:13.834Z,99511.84
2019-04-30T19:05:26.012Z,99512.30
2019-04-30T19:07:37.547Z,99515.30
2019-04-30T19:09:49.098Z,99516.59
2019-04-30T19:12:29.099Z,99515.38
2019-04-30T19:14:41.968Z,99512.77
2019-04-30T19:17:19.480Z,99516.38
2019-04-30T19:19:50.041Z,99519.83
2019-04-30T19:21:55.136Z,99518.59
2019-04-30T19:24:00.189Z,99517.30
2019-04-30T19:26:05.211Z,99514.31
2019-04-30T19:28:14.308Z,99513.39
2019-04-30T19:30:19.254Z,99515.53
2019-04-30T19:32:24.329Z,99511.08
2019-04-30T19:34:31.478Z,99516.68
2019-04-30T19:36:37.671Z,99509.70
2019-04-30T19:38:42.887Z,99511.46
2019-04-30T19:40:49.396Z,99516.68
2019-04-30T19:42:54.861Z,99512.30
2019-04-30T19:45:09.098Z,99515.76
2019-04-30T19:47:09.167Z,99514.83
2019-04-30T19:49:14.125Z,99510.55
2019-04-30T19:51:19.762Z,99512.69
2019-04-30T19:53:25.059Z,99520.05
2019-04-30T19:55:31.194Z,99520.40
2019-04-30T19:57:39.820Z,99519.55
2019-04-30T19:59:45.277Z,99522.66
2019-04-30T20:01:50.365Z,99525.61
2019-04-30T20:03:55.395Z,99525.61
2019-04-30T20:06:00.448Z,99521.70
2019-04-30T20:08:05.467Z,99529.91
2019-04-30T20:10:10.523Z,99526.91
2019-04-30T20:12:15.740Z,99525.15
2019-04-30T20:14:20.821Z,99522.92
2019-04-30T20:16:25.936Z,99528.22
2019-04-30T20:18:30.973Z,99529.45
2019-04-30T20:20:36.798Z,99522.92
2019-04-30T20:22:41.861Z,99527.67
2019-04-30T20:24:49.025Z,99521.16
2019-04-30T20:27:04.242Z,99523.38
2019-04-30T20:29:00.564Z,99514.27
2019-04-30T20:31:05.604Z,99511.66
2019-04-30T20:33:10.658Z,99511.66
2019-04-30T20:35:16.507Z,99511.66
2019-04-30T20:37:21.860Z,99513.42
2019-04-30T20:39:51.656Z,99510.81
2019-04-30T20:41:56.698Z,99510.73
2019-04-30T20:44:01.766Z,99509.51
2019-04-30T20:46:08.586Z,99509.51
2019-04-30T20:48:13.849Z,99511.27
2019-04-30T20:50:18.921Z,99507.36
2019-04-30T20:52:24.017Z,99512.12
2019-04-30T20:54:29.284Z,99504.75
2019-04-30T20:56:34.302Z,99513.42
2019-04-30T20:58:54.667Z,99511.66
2019-04-30T21:00:46.186Z,99515.10
2019-04-30T21:02:51.248Z,99508.20
2019-04-30T21:04:56.282Z,99509.51
2019-04-30T21:07:01.794Z,99504.75
2019-04-30T21:09:07.284Z,99502.53
2019-04-30T21:11:12.420Z,99505.14
2019-04-30T21:13:19.297Z,99501.23
2019-04-30T21:15:24.210Z,99505.14
2019-04-30T21:17:29.246Z,99502.53
2019-04-30T21:19:34.378Z,99502.15
2019-04-30T21:21:39.406Z,99501.30
2019-04-30T21:23:44.528Z,99496.47
2019-04-30T21:25:49.557Z,99498.23
2019-04-30T21:27:54.714Z,99489.95
2019-04-30T21:29:59.733Z,99490.42
2019-04-30T21:32:14.538Z,99488.66
2019-04-30T21:34:39.374Z,99489.95
2019-04-30T21:36:44.478Z,99487.81
2019-04-30T21:38:49.574Z,99485.31
2019-04-30T21:40:55.064Z,99485.31
2019-04-30T21:43:00.122Z,99482.25
2019-04-30T21:45:05.299Z,99479.64
2019-04-30T21:47:10.375Z,99472.17
2019-04-30T21:49:15.431Z,99471.82
2019-04-30T21:51:20.460Z,99470.02
2019-04-30T21:53:25.512Z,99474.31
2019-04-30T21:55:30.657Z,99470.52
2019-04-30T21:57:35.765Z,99472.17
2019-04-30T21:59:40.800Z,99472.17
2019-04-30T22:01:46.131Z,99469.56
2019-04-30T22:03:51.412Z,99469.09
2019-04-30T22:05:57.572Z,99465.30
2019-04-30T22:08:02.669Z,99467.41
2019-04-30T22:10:07.705Z,99463.05
2019-04-30T22:12:12.739Z,99463.05
2019-04-30T22:14:17.781Z,99462.69
2019-04-30T22:16:22.832Z,99457.48
2019-04-30T22:18:27.947Z,99462.20
2019-04-30T22:20:33.022Z,99464.00
2019-04-30T22:22:39.181Z,99460.90
2019-04-30T22:24:44.369Z,99457.95
2019-04-30T22:26:49.419Z,99455.80
2019-04-30T22:28:54.909Z,99453.57
2019-04-30T22:30:59.943Z,99454.88
2019-04-30T22:33:05.003Z,99450.13
2019-04-30T22:35:41.647Z,99453.57
2019-04-30T22:37:46.690Z,99444.91
2019-04-30T22:40:00.545Z,99444.98
2019-04-30T22:42:35.135Z,99444.15
2019-04-30T22:44:40.217Z,99443.30
2019-04-30T22:46:45.295Z,99450.74
2019-04-30T22:48:50.356Z,99446.38
2019-04-30T22:50:55.412Z,99441.62
2019-04-30T22:53:00.443Z,99446.83
2019-04-30T22:55:05.673Z,99443.30
2019-04-30T22:57:10.703Z,99435.48
2019-04-30T22:59:15.753Z,99437.25
2019-04-30T23:01:48.681Z,99434.18
2019-04-30T23:03:55.565Z,99435.48
2019-04-30T23:06:00.738Z,99430.73
2019-04-30T23:08:05.827Z,99432.12
2019-04-30T23:10:10.882Z,99427.28
2019-04-30T23:12:15.948Z,99432.50
2019-04-30T23:14:20.980Z,99421.69
2019-04-30T23:16:26.041Z,99425.98
2019-04-30T23:18:32.238Z,99422.91
2019-04-30T23:20:37.414Z,99421.61
2019-04-30T23:22:42.438Z,99421.61
2019-04-30T23:24:47.509Z,99424.67
2019-04-30T23:26:52.545Z,99418.16
2019-04-30T23:28:57.605Z,99419.46
2019-04-30T23:31:02.741Z,99416.39
2019-04-30T23:33:07.791Z,99414.71
2019-04-30T23:35:12.891Z,99414.71
2019-04-30T23:37:17.979Z,99408.20
2019-04-30T23:39:23.035Z,99413.95
2019-04-30T23:41:28.068Z,99410.50
2019-04-30T23:43:33.135Z,99419.63
2019-04-30T23:45:38.175Z,99416.29
2019-04-30T23:47:43.222Z,99417.59
2019-04-30T23:49:48.291Z,99412.47
2019-04-30T23:51:54.132Z,99413.77
2019-04-30T23:53:59.198Z,99408.25
2019-04-30T23:56:04.628Z,99406.95
2019-04-30T23:58:09.698Z,99407.03
